»·PEaware :: SKY525 KSBP-KOAR

SKY525 :: KSBP-KOAR

FLIGHT INFORMATION

Flight Status: Arrived
Operator:
Sky High Charters
More flights by this operator :: More flights under this callsign
Pilot: Justin C. (30559)
Aircraft: BEECH AIRCRAFT A90-E90 KING AIR
(BE9L)
More flights by this aircraft type
Origin: KSBP San Luis Co Regl
United States
Destination: KOAR Marina
United States
More flights between these airports :: More routes between these airports
Route: CREPE3 PRB V248 SARDO ZURET
File this flight plan on PilotEdge
Remarks:
Altitude:
(Current/Filed)
8,000ft
Speed:
(Current/Filed)
180kts
Departed: 06-Aug-20 07:56 AM
Arrived: 06-Aug-20 09:26 AM
Distance/Time
Traveled:
102nm/1:30
Distance/Time
To Go:
Arrived

Flight Plot

Page will automatically refresh every two minutes.

Flight plan parsing failed; only flown route is shown


Map Options




Map Legend


Flown Route
Filed Route
Departure Airport
Arrival Airport
Navaid (VOR, NDB)
Fix

Horizontal Profiles

Position Reports

Time Latitude Longitude Heading Altitude Ground
Speed
06-Aug-20 07:22 35.238238 -120.639978 308 215ft 0kts
06-Aug-20 07:23 35.238238 -120.639978 308 215ft 0kts
06-Aug-20 07:24 35.238238 -120.639978 308 215ft 0kts
06-Aug-20 07:25 35.238238 -120.639978 308 215ft 0kts
06-Aug-20 07:26 35.238238 -120.639978 308 215ft 0kts
06-Aug-20 07:27 35.238238 -120.639978 308 215ft 0kts
06-Aug-20 07:28 35.238238 -120.639978 308 215ft 0kts
06-Aug-20 07:29 35.238238 -120.639978 308 215ft 0kts
06-Aug-20 07:30 35.238238 -120.639978 308 215ft 0kts
06-Aug-20 07:31 35.238238 -120.639978 308 215ft 0kts
06-Aug-20 07:32 35.238238 -120.639978 308 215ft 0kts
06-Aug-20 07:33 35.238238 -120.639978 308 215ft 0kts
06-Aug-20 07:34 35.238238 -120.639978 308 215ft 0kts
06-Aug-20 07:35 35.238238 -120.639978 308 215ft 0kts
06-Aug-20 07:36 35.238238 -120.639978 308 215ft 0kts
06-Aug-20 07:37 35.238238 -120.639978 308 215ft 0kts
06-Aug-20 07:38 35.238238 -120.639978 308 215ft 0kts
06-Aug-20 07:39 35.238238 -120.639978 308 215ft 0kts
06-Aug-20 07:40 35.238238 -120.639978 308 215ft 0kts
06-Aug-20 07:41 35.238238 -120.639978 308 215ft 0kts
06-Aug-20 07:42 35.238238 -120.639978 308 215ft 0kts
06-Aug-20 07:43 35.238238 -120.639978 308 215ft 0kts
06-Aug-20 07:44 35.238238 -120.639978 308 215ft 0kts
06-Aug-20 07:45 35.238238 -120.639978 308 215ft 0kts
06-Aug-20 07:46 35.238238 -120.639978 308 215ft 0kts
06-Aug-20 07:47 35.238238 -120.639978 308 215ft 0kts
06-Aug-20 07:48 35.238240 -120.639982 307 215ft 0kts
06-Aug-20 07:49 35.237429 -120.639262 125 215ft 8kts
06-Aug-20 07:50 35.235952 -120.636678 124 215ft 10kts
06-Aug-20 07:51 35.234177 -120.633569 124 215ft 12kts
06-Aug-20 07:52 35.233251 -120.632366 189 215ft 0kts
06-Aug-20 07:53 35.233251 -120.632366 189 215ft 0kts
06-Aug-20 07:54 35.233190 -120.632384 195 215ft 2kts
06-Aug-20 07:55 35.234699 -120.636369 305 215ft 75kts
06-Aug-20 07:57 35.255030 -120.672040 300 1077ft 150kts
06-Aug-20 07:58 35.280190 -120.716560 302 2074ft 177kts
06-Aug-20 07:59 35.304427 -120.763694 302 2309ft 146kts
06-Aug-20 08:00 35.326359 -120.806366 302 2376ft 132kts
06-Aug-20 08:01 35.344493 -120.841818 304 3363ft 113kts
06-Aug-20 08:02 35.367094 -120.875716 336 4164ft 118kts
06-Aug-20 08:03 35.373660 -120.846058 120 4534ft 120kts
06-Aug-20 08:04 35.358199 -120.804400 111 4950ft 150kts
06-Aug-20 08:05 35.341157 -120.752506 111 5075ft 170kts
06-Aug-20 08:06 35.322904 -120.696744 111 5134ft 177kts
06-Aug-20 08:07 35.303823 -120.638441 111 4963ft 188kts
06-Aug-20 08:08 35.281540 -120.580091 123 4614ft 186kts
06-Aug-20 08:09 35.257619 -120.534668 122 4994ft 135kts
06-Aug-20 08:10 35.235672 -120.494011 121 4947ft 143kts
06-Aug-20 08:11 35.213414 -120.452746 122 5007ft 151kts
06-Aug-20 08:12 35.189301 -120.407113 122 4956ft 155kts
06-Aug-20 08:12 35.169830 -120.370427 122 5066ft 152kts
06-Aug-20 08:14 35.135160 -120.332910 207 4976ft 152kts
06-Aug-20 08:15 35.109681 -120.369283 281 4592ft 132kts
06-Aug-20 08:15 35.116321 -120.404793 277 4067ft 126kts
06-Aug-20 08:17 35.126771 -120.453162 306 3860ft 147kts
06-Aug-20 08:17 35.148529 -120.488916 307 3694ft 158kts
06-Aug-20 08:19 35.178212 -120.537485 305 3185ft 145kts
06-Aug-20 08:19 35.195804 -120.568213 305 2318ft 122kts
06-Aug-20 08:20 35.214138 -120.599723 304 1200ft 109kts
06-Aug-20 08:22 35.233916 -120.635010 304 237ft 94kts
06-Aug-20 08:22 35.237774 -120.640457 86 215ft 0kts
06-Aug-20 08:23 35.238127 -120.639936 122 215ft 0kts
06-Aug-20 08:24 35.238127 -120.639936 122 215ft 0kts
06-Aug-20 08:25 35.238127 -120.639936 122 215ft 0kts
06-Aug-20 08:26 35.238127 -120.639936 122 215ft 0kts
06-Aug-20 08:27 35.238127 -120.639936 122 215ft 0kts
06-Aug-20 08:28 35.238127 -120.639936 122 215ft 0kts
06-Aug-20 08:29 35.238127 -120.639936 122 215ft 0kts
06-Aug-20 08:30 35.238127 -120.639936 122 215ft 0kts
06-Aug-20 08:31 35.238127 -120.639936 122 215ft 0kts
06-Aug-20 08:32 35.238127 -120.639936 122 215ft 0kts
06-Aug-20 08:33 35.238127 -120.639936 122 215ft 0kts
06-Aug-20 08:34 35.238127 -120.639936 122 215ft 0kts
06-Aug-20 08:35 35.238120 -120.639923 124 215ft 1kts
06-Aug-20 08:36 35.235964 -120.636677 125 215ft 15kts
06-Aug-20 08:37 35.233884 -120.633085 125 215ft 10kts
06-Aug-20 08:38 35.233250 -120.632377 184 215ft 0kts
06-Aug-20 08:39 35.233535 -120.634341 305 215ft 21kts
06-Aug-20 08:40 35.250967 -120.660394 303 1051ft 133kts
06-Aug-20 08:41 35.272909 -120.703495 302 2365ft 159kts
06-Aug-20 08:42 35.298325 -120.749173 304 3676ft 162kts
06-Aug-20 08:43 35.324028 -120.794162 304 4974ft 159kts
06-Aug-20 08:44 35.348993 -120.837887 304 6267ft 154kts
06-Aug-20 08:45 35.381957 -120.849921 28 7574ft 144kts
06-Aug-20 08:46 35.420314 -120.821347 31 8000ft 183kts
06-Aug-20 08:47 35.466556 -120.785847 31 7996ft 200kts
06-Aug-20 08:48 35.514339 -120.749100 31 7992ft 204kts
06-Aug-20 08:49 35.562578 -120.711952 31 7991ft 205kts
06-Aug-20 08:50 35.608787 -120.676315 31 7989ft 192kts
06-Aug-20 08:51 35.653264 -120.641969 31 7990ft 186kts
06-Aug-20 08:52 35.700893 -120.638582 341 7991ft 182kts
06-Aug-20 08:53 35.749129 -120.657704 341 7990ft 182kts
06-Aug-20 08:54 35.798788 -120.677531 341 7990ft 182kts
06-Aug-20 08:55 35.847216 -120.696893 341 7990ft 182kts
06-Aug-20 08:56 35.895588 -120.716256 341 7990ft 182kts
06-Aug-20 08:57 35.944661 -120.735926 341 7990ft 182kts
06-Aug-20 08:58 35.994772 -120.756039 341 7990ft 182kts
06-Aug-20 08:59 36.043311 -120.775546 341 7990ft 182kts
06-Aug-20 09:00 36.090641 -120.798123 312 8002ft 180kts
06-Aug-20 09:01 36.125950 -120.841765 314 8000ft 181kts
06-Aug-20 09:02 36.161766 -120.886579 314 8000ft 182kts
06-Aug-20 09:03 36.197439 -120.931345 314 8000ft 182kts
06-Aug-20 09:04 36.233054 -120.976108 314 8000ft 182kts
06-Aug-20 09:05 36.268616 -121.020866 314 8002ft 180kts
06-Aug-20 09:06 36.303776 -121.065181 314 7986ft 179kts
06-Aug-20 09:07 36.338371 -121.108840 314 7927ft 170kts
06-Aug-20 09:08 36.370828 -121.149877 313 7615ft 160kts
06-Aug-20 09:09 36.401076 -121.188147 313 7044ft 148kts
06-Aug-20 09:10 36.430196 -121.225031 313 6421ft 144kts
06-Aug-20 09:11 36.458148 -121.260454 313 5984ft 129kts
06-Aug-20 09:12 36.481137 -121.289645 312 5727ft 111kts
06-Aug-20 09:13 36.505613 -121.320757 313 5998ft 149kts
06-Aug-20 09:14 36.532926 -121.366131 304 5487ft 158kts
06-Aug-20 09:15 36.557973 -121.411344 303 4557ft 147kts
06-Aug-20 09:16 36.579100 -121.449554 303 3982ft 125kts
06-Aug-20 09:17 36.599052 -121.485691 303 3795ft 137kts
06-Aug-20 09:18 36.621948 -121.527180 303 3601ft 152kts
06-Aug-20 09:19 36.645538 -121.569963 303 2914ft 138kts
06-Aug-20 09:20 36.664625 -121.611814 277 2693ft 156kts
06-Aug-20 09:21 36.669064 -121.656147 277 1942ft 101kts
06-Aug-20 09:22 36.672393 -121.690504 276 1339ft 99kts
06-Aug-20 09:23 36.673421 -121.725074 259 752ft 100kts
06-Aug-20 09:24 36.679301 -121.757345 300 145ft 90kts
06-Aug-20 09:25 36.680255 -121.762572 120 135ft 8kts
06-Aug-20 09:26 36.679006 -121.760246 110 133ft 9kts
06-Aug-20 09:27 36.677017 -121.760185 212 134ft 9kts
06-Aug-20 09:28 36.676474 -121.761408 124 134ft 0kts
06-Aug-20 09:29 36.676474 -121.761408 124 134ft 0kts
06-Aug-20 09:30 36.676474 -121.761408 124 134ft 0kts
06-Aug-20 09:31 36.676474 -121.761408 124 134ft 0kts
06-Aug-20 09:32 36.676474 -121.761408 124 134ft 0kts
06-Aug-20 09:33 36.676474 -121.761408 124 134ft 0kts
06-Aug-20 09:34 36.676474 -121.761408 124 134ft 0kts
06-Aug-20 09:35 36.676474 -121.761408 124 134ft 0kts
06-Aug-20 09:36 36.676474 -121.761408 124 134ft 0kts
06-Aug-20 09:37 36.676474 -121.761408 124 134ft 0kts
06-Aug-20 09:38 36.676474 -121.761408 124 134ft 0kts
06-Aug-20 09:39 36.676474 -121.761408 124 134ft 0kts

Navigation Log

Ident Type
Flight plan parsing failed, navigation log unavailable